sensor_id;sensor_type;location;lat;lon;timestamp;P1;durP1;ratioP1;P2;durP2;ratioP2
47219;SDS011;32961;51.936;4.788;2024-02-15T00:01:44;12.65;;;3.05;;
47219;SDS011;32961;51.936;4.788;2024-02-15T00:04:12;10.02;;;3.85;;
47219;SDS011;32961;51.936;4.788;2024-02-15T00:06:40;12.60;;;3.97;;
47219;SDS011;32961;51.936;4.788;2024-02-15T00:09:08;15.50;;;3.92;;
47219;SDS011;32961;51.936;4.788;2024-02-15T00:11:36;17.25;;;3.47;;
47219;SDS011;32961;51.936;4.788;2024-02-15T00:14:07;12.43;;;3.42;;
47219;SDS011;32961;51.936;4.788;2024-02-15T00:16:35;10.23;;;3.45;;
47219;SDS011;32961;51.936;4.788;2024-02-15T00:19:05;12.45;;;4.75;;
47219;SDS011;32961;51.936;4.788;2024-02-15T00:21:34;10.63;;;3.38;;
47219;SDS011;32961;51.936;4.788;2024-02-15T00:24:02;8.68;;;3.30;;
47219;SDS011;32961;51.936;4.788;2024-02-15T00:26:30;9.82;;;3.42;;
47219;SDS011;32961;51.936;4.788;2024-02-15T00:28:58;11.88;;;4.13;;
47219;SDS011;32961;51.936;4.788;2024-02-15T00:31:28;13.07;;;4.35;;
47219;SDS011;32961;51.936;4.788;2024-02-15T00:33:56;11.80;;;4.47;;
47219;SDS011;32961;51.936;4.788;2024-02-15T00:36:25;14.20;;;3.88;;
47219;SDS011;32961;51.936;4.788;2024-02-15T00:38:54;14.13;;;4.82;;
47219;SDS011;32961;51.936;4.788;2024-02-15T00:41:22;12.50;;;4.88;;
47219;SDS011;32961;51.936;4.788;2024-02-15T00:43:49;12.73;;;4.95;;
47219;SDS011;32961;51.936;4.788;2024-02-15T00:46:17;18.15;;;5.93;;
47219;SDS011;32961;51.936;4.788;2024-02-15T00:48:46;10.30;;;4.85;;
47219;SDS011;32961;51.936;4.788;2024-02-15T00:51:15;16.15;;;5.28;;
47219;SDS011;32961;51.936;4.788;2024-02-15T00:53:43;13.82;;;5.03;;
47219;SDS011;32961;51.936;4.788;2024-02-15T00:56:10;14.82;;;4.88;;
47219;SDS011;32961;51.936;4.788;2024-02-15T00:58:38;17.25;;;6.20;;
47219;SDS011;32961;51.936;4.788;2024-02-15T01:01:06;16.65;;;7.47;;
47219;SDS011;32961;51.936;4.788;2024-02-15T01:03:35;15.07;;;6.10;;
47219;SDS011;32961;51.936;4.788;2024-02-15T01:06:04;12.68;;;6.07;;
47219;SDS011;32961;51.936;4.788;2024-02-15T01:08:33;17.02;;;6.03;;
47219;SDS011;32961;51.936;4.788;2024-02-15T01:11:02;17.60;;;7.13;;
47219;SDS011;32961;51.936;4.788;2024-02-15T01:13:30;15.32;;;6.28;;
47219;SDS011;32961;51.936;4.788;2024-02-15T01:15:58;24.17;;;6.82;;
47219;SDS011;32961;51.936;4.788;2024-02-15T01:18:29;16.40;;;7.07;;
47219;SDS011;32961;51.936;4.788;2024-02-15T01:20:58;14.88;;;6.28;;
47219;SDS011;32961;51.936;4.788;2024-02-15T01:23:27;17.70;;;6.40;;
47219;SDS011;32961;51.936;4.788;2024-02-15T01:25:55;13.90;;;6.60;;
47219;SDS011;32961;51.936;4.788;2024-02-15T01:28:24;17.52;;;6.82;;
47219;SDS011;32961;51.936;4.788;2024-02-15T01:30:51;12.48;;;7.28;;
47219;SDS011;32961;51.936;4.788;2024-02-15T01:33:21;13.02;;;6.32;;
47219;SDS011;32961;51.936;4.788;2024-02-15T01:35:49;16.45;;;6.45;;
47219;SDS011;32961;51.936;4.788;2024-02-15T01:38:16;21.70;;;7.05;;
47219;SDS011;32961;51.936;4.788;2024-02-15T01:40:47;13.77;;;6.88;;
47219;SDS011;32961;51.936;4.788;2024-02-15T01:43:15;15.98;;;7.90;;
47219;SDS011;32961;51.936;4.788;2024-02-15T01:45:43;19.70;;;6.88;;
47219;SDS011;32961;51.936;4.788;2024-02-15T01:48:13;14.68;;;6.65;;
47219;SDS011;32961;51.936;4.788;2024-02-15T01:50:43;19.33;;;7.95;;
47219;SDS011;32961;51.936;4.788;2024-02-15T01:53:11;14.18;;;6.57;;
47219;SDS011;32961;51.936;4.788;2024-02-15T01:55:39;28.98;;;7.15;;
47219;SDS011;32961;51.936;4.788;2024-02-15T01:58:09;27.85;;;8.15;;
47219;SDS011;32961;51.936;4.788;2024-02-15T02:00:36;15.35;;;6.43;;
47219;SDS011;32961;51.936;4.788;2024-02-15T02:03:06;16.52;;;7.28;;
47219;SDS011;32961;51.936;4.788;2024-02-15T02:05:36;18.98;;;7.10;;
47219;SDS011;32961;51.936;4.788;2024-02-15T02:08:04;18.15;;;7.53;;
47219;SDS011;32961;51.936;4.788;2024-02-15T02:10:36;15.05;;;6.65;;
47219;SDS011;32961;51.936;4.788;2024-02-15T02:13:04;16.10;;;6.78;;
47219;SDS011;32961;51.936;4.788;2024-02-15T02:15:33;15.40;;;6.63;;
47219;SDS011;32961;51.936;4.788;2024-02-15T02:18:03;19.90;;;7.03;;
47219;SDS011;32961;51.936;4.788;2024-02-15T02:20:33;17.73;;;6.55;;
47219;SDS011;32961;51.936;4.788;2024-02-15T02:23:03;13.30;;;6.45;;
47219;SDS011;32961;51.936;4.788;2024-02-15T02:25:35;21.80;;;6.97;;
47219;SDS011;32961;51.936;4.788;2024-02-15T02:28:03;16.02;;;6.15;;
47219;SDS011;32961;51.936;4.788;2024-02-15T02:30:32;19.92;;;6.82;;
47219;SDS011;32961;51.936;4.788;2024-02-15T02:33:01;17.80;;;6.65;;
47219;SDS011;32961;51.936;4.788;2024-02-15T02:35:32;14.20;;;6.30;;
47219;SDS011;32961;51.936;4.788;2024-02-15T02:38:00;18.58;;;6.57;;
47219;SDS011;32961;51.936;4.788;2024-02-15T02:40:29;18.88;;;8.82;;
47219;SDS011;32961;51.936;4.788;2024-02-15T02:42:59;19.02;;;6.07;;
47219;SDS011;32961;51.936;4.788;2024-02-15T02:45:27;13.07;;;6.88;;
47219;SDS011;32961;51.936;4.788;2024-02-15T02:47:55;19.10;;;6.35;;
47219;SDS011;32961;51.936;4.788;2024-02-15T02:50:23;18.13;;;6.68;;
47219;SDS011;32961;51.936;4.788;2024-02-15T02:52:51;16.98;;;5.95;;
47219;SDS011;32961;51.936;4.788;2024-02-15T02:55:19;22.38;;;6.55;;
47219;SDS011;32961;51.936;4.788;2024-02-15T02:57:47;15.38;;;6.10;;
47219;SDS011;32961;51.936;4.788;2024-02-15T03:00:17;11.48;;;6.50;;
47219;SDS011;32961;51.936;4.788;2024-02-15T03:02:46;17.25;;;6.53;;
47219;SDS011;32961;51.936;4.788;2024-02-15T03:05:14;26.23;;;6.50;;
47219;SDS011;32961;51.936;4.788;2024-02-15T03:07:42;15.90;;;6.45;;
47219;SDS011;32961;51.936;4.788;2024-02-15T03:10:11;17.88;;;6.93;;
47219;SDS011;32961;51.936;4.788;2024-02-15T03:12:41;14.05;;;5.90;;
47219;SDS011;32961;51.936;4.788;2024-02-15T03:15:15;18.95;;;6.13;;
47219;SDS011;32961;51.936;4.788;2024-02-15T03:17:46;16.55;;;6.10;;
47219;SDS011;32961;51.936;4.788;2024-02-15T03:20:15;17.23;;;6.43;;
47219;SDS011;32961;51.936;4.788;2024-02-15T03:22:52;22.35;;;5.90;;
47219;SDS011;32961;51.936;4.788;2024-02-15T03:25:20;19.30;;;5.80;;
47219;SDS011;32961;51.936;4.788;2024-02-15T03:27:50;22.38;;;6.40;;
47219;SDS011;32961;51.936;4.788;2024-02-15T03:30:20;23.05;;;6.13;;
47219;SDS011;32961;51.936;4.788;2024-02-15T03:32:50;19.67;;;5.85;;
47219;SDS011;32961;51.936;4.788;2024-02-15T03:35:19;14.45;;;5.90;;
47219;SDS011;32961;51.936;4.788;2024-02-15T03:37:48;20.15;;;5.43;;
47219;SDS011;32961;51.936;4.788;2024-02-15T03:40:17;11.35;;;5.15;;
47219;SDS011;32961;51.936;4.788;2024-02-15T03:42:46;13.40;;;5.03;;
47219;SDS011;32961;51.936;4.788;2024-02-15T03:45:14;17.00;;;5.55;;
47219;SDS011;32961;51.936;4.788;2024-02-15T03:47:43;11.55;;;5.25;;
47219;SDS011;32961;51.936;4.788;2024-02-15T03:50:13;16.20;;;5.28;;
47219;SDS011;32961;51.936;4.788;2024-02-15T03:52:41;19.17;;;5.47;;
47219;SDS011;32961;51.936;4.788;2024-02-15T03:55:10;17.88;;;5.85;;
47219;SDS011;32961;51.936;4.788;2024-02-15T03:57:38;17.75;;;5.53;;
47219;SDS011;32961;51.936;4.788;2024-02-15T04:00:07;17.63;;;5.45;;
47219;SDS011;32961;51.936;4.788;2024-02-15T04:02:38;23.88;;;5.80;;
47219;SDS011;32961;51.936;4.788;2024-02-15T04:05:09;19.50;;;6.07;;
47219;SDS011;32961;51.936;4.788;2024-02-15T04:07:39;17.10;;;6.10;;
47219;SDS011;32961;51.936;4.788;2024-02-15T04:10:07;16.98;;;5.88;;
47219;SDS011;32961;51.936;4.788;2024-02-15T04:12:35;16.55;;;7.57;;
47219;SDS011;32961;51.936;4.788;2024-02-15T04:15:04;18.15;;;7.22;;
47219;SDS011;32961;51.936;4.788;2024-02-15T04:17:38;14.27;;;5.82;;
47219;SDS011;32961;51.936;4.788;2024-02-15T04:20:07;19.40;;;7.30;;
47219;SDS011;32961;51.936;4.788;2024-02-15T04:22:38;19.05;;;7.68;;
47219;SDS011;32961;51.936;4.788;2024-02-15T04:25:09;22.33;;;7.13;;
47219;SDS011;32961;51.936;4.788;2024-02-15T04:30:11;12.35;;;6.35;;
47219;SDS011;32961;51.936;4.788;2024-02-15T04:32:40;20.25;;;7.88;;
47219;SDS011;32961;51.936;4.788;2024-02-15T04:35:10;21.30;;;8.73;;
47219;SDS011;32961;51.936;4.788;2024-02-15T04:37:40;22.30;;;8.20;;
47219;SDS011;32961;51.936;4.788;2024-02-15T04:40:08;23.40;;;10.45;;
47219;SDS011;32961;51.936;4.788;2024-02-15T04:42:38;21.67;;;9.07;;
47219;SDS011;32961;51.936;4.788;2024-02-15T04:45:08;26.05;;;8.90;;
47219;SDS011;32961;51.936;4.788;2024-02-15T04:47:39;25.27;;;9.68;;
47219;SDS011;32961;51.936;4.788;2024-02-15T04:50:08;22.02;;;8.10;;
47219;SDS011;32961;51.936;4.788;2024-02-15T04:52:37;22.80;;;8.73;;
47219;SDS011;32961;51.936;4.788;2024-02-15T04:55:05;21.17;;;10.38;;
47219;SDS011;32961;51.936;4.788;2024-02-15T04:57:33;20.77;;;10.13;;
47219;SDS011;32961;51.936;4.788;2024-02-15T05:00:04;22.15;;;9.05;;
47219;SDS011;32961;51.936;4.788;2024-02-15T05:05:09;18.73;;;8.23;;
47219;SDS011;32961;51.936;4.788;2024-02-15T05:07:39;23.35;;;10.13;;
47219;SDS011;32961;51.936;4.788;2024-02-15T05:10:07;25.45;;;9.27;;
47219;SDS011;32961;51.936;4.788;2024-02-15T05:12:37;20.33;;;9.50;;
47219;SDS011;32961;51.936;4.788;2024-02-15T05:15:06;22.10;;;9.23;;
47219;SDS011;32961;51.936;4.788;2024-02-15T05:17:38;23.17;;;9.18;;
47219;SDS011;32961;51.936;4.788;2024-02-15T05:20:10;23.10;;;10.07;;
47219;SDS011;32961;51.936;4.788;2024-02-15T05:22:40;28.35;;;9.85;;
47219;SDS011;32961;51.936;4.788;2024-02-15T05:25:16;21.52;;;10.00;;
47219;SDS011;32961;51.936;4.788;2024-02-15T05:27:50;21.98;;;9.05;;
47219;SDS011;32961;51.936;4.788;2024-02-15T05:30:20;26.58;;;9.48;;
47219;SDS011;32961;51.936;4.788;2024-02-15T05:32:48;29.45;;;10.43;;
47219;SDS011;32961;51.936;4.788;2024-02-15T05:35:18;21.02;;;9.60;;
47219;SDS011;32961;51.936;4.788;2024-02-15T05:37:46;23.90;;;8.98;;
47219;SDS011;32961;51.936;4.788;2024-02-15T05:40:14;24.30;;;8.70;;
47219;SDS011;32961;51.936;4.788;2024-02-15T05:42:42;26.80;;;9.70;;
47219;SDS011;32961;51.936;4.788;2024-02-15T05:45:28;27.80;;;9.85;;
47219;SDS011;32961;51.936;4.788;2024-02-15T05:47:59;23.30;;;9.43;;
47219;SDS011;32961;51.936;4.788;2024-02-15T05:50:29;33.75;;;11.63;;
47219;SDS011;32961;51.936;4.788;2024-02-15T05:52:58;25.63;;;10.38;;
47219;SDS011;32961;51.936;4.788;2024-02-15T05:55:27;21.80;;;10.00;;
47219;SDS011;32961;51.936;4.788;2024-02-15T05:57:57;23.02;;;10.32;;
47219;SDS011;32961;51.936;4.788;2024-02-15T06:00:25;24.35;;;10.60;;
47219;SDS011;32961;51.936;4.788;2024-02-15T06:02:53;23.40;;;9.57;;
47219;SDS011;32961;51.936;4.788;2024-02-15T06:05:22;24.58;;;13.68;;
47219;SDS011;32961;51.936;4.788;2024-02-15T06:07:52;23.50;;;12.77;;
47219;SDS011;32961;51.936;4.788;2024-02-15T06:10:20;23.42;;;9.50;;
47219;SDS011;32961;51.936;4.788;2024-02-15T06:12:47;19.67;;;9.70;;
47219;SDS011;32961;51.936;4.788;2024-02-15T06:15:15;18.88;;;9.55;;
47219;SDS011;32961;51.936;4.788;2024-02-15T06:17:44;20.23;;;9.88;;
47219;SDS011;32961;51.936;4.788;2024-02-15T06:20:13;15.90;;;9.38;;
47219;SDS011;32961;51.936;4.788;2024-02-15T06:22:44;15.02;;;9.15;;
47219;SDS011;32961;51.936;4.788;2024-02-15T06:25:14;22.23;;;9.20;;
47219;SDS011;32961;51.936;4.788;2024-02-15T06:27:47;20.13;;;11.30;;
47219;SDS011;32961;51.936;4.788;2024-02-15T06:30:15;25.42;;;12.38;;
47219;SDS011;32961;51.936;4.788;2024-02-15T06:33:00;23.10;;;10.20;;
47219;SDS011;32961;51.936;4.788;2024-02-15T06:35:45;13.80;;;8.98;;
47219;SDS011;32961;51.936;4.788;2024-02-15T06:38:30;14.77;;;8.75;;
47219;SDS011;32961;51.936;4.788;2024-02-15T06:41:17;15.15;;;8.68;;
47219;SDS011;32961;51.936;4.788;2024-02-15T06:43:47;16.98;;;9.88;;
47219;SDS011;32961;51.936;4.788;2024-02-15T06:46:15;17.50;;;9.27;;
47219;SDS011;32961;51.936;4.788;2024-02-15T06:48:45;17.40;;;9.02;;
47219;SDS011;32961;51.936;4.788;2024-02-15T06:51:14;17.58;;;9.43;;
47219;SDS011;32961;51.936;4.788;2024-02-15T06:53:42;15.15;;;9.25;;
47219;SDS011;32961;51.936;4.788;2024-02-15T06:56:10;19.08;;;9.32;;
47219;SDS011;32961;51.936;4.788;2024-02-15T06:58:41;19.90;;;11.85;;
47219;SDS011;32961;51.936;4.788;2024-02-15T07:01:09;17.23;;;8.98;;
47219;SDS011;32961;51.936;4.788;2024-02-15T07:03:40;14.98;;;8.80;;
47219;SDS011;32961;51.936;4.788;2024-02-15T07:06:08;15.55;;;7.90;;
47219;SDS011;32961;51.936;4.788;2024-02-15T07:08:36;17.70;;;9.23;;
47219;SDS011;32961;51.936;4.788;2024-02-15T07:11:03;14.02;;;7.35;;
47219;SDS011;32961;51.936;4.788;2024-02-15T07:13:33;16.48;;;7.43;;
47219;SDS011;32961;51.936;4.788;2024-02-15T07:16:02;15.13;;;7.93;;
47219;SDS011;32961;51.936;4.788;2024-02-15T07:18:34;19.73;;;7.43;;
47219;SDS011;32961;51.936;4.788;2024-02-15T07:21:02;13.38;;;7.25;;
47219;SDS011;32961;51.936;4.788;2024-02-15T07:23:37;22.33;;;8.43;;
47219;SDS011;32961;51.936;4.788;2024-02-15T07:26:05;18.27;;;8.43;;
47219;SDS011;32961;51.936;4.788;2024-02-15T07:28:34;19.92;;;9.20;;
47219;SDS011;32961;51.936;4.788;2024-02-15T07:31:04;18.20;;;9.10;;
47219;SDS011;32961;51.936;4.788;2024-02-15T07:33:33;24.02;;;8.77;;
47219;SDS011;32961;51.936;4.788;2024-02-15T07:36:02;17.73;;;7.63;;
47219;SDS011;32961;51.936;4.788;2024-02-15T07:38:30;21.45;;;8.65;;
47219;SDS011;32961;51.936;4.788;2024-02-15T07:41:00;24.42;;;8.23;;
47219;SDS011;32961;51.936;4.788;2024-02-15T07:43:28;16.60;;;7.45;;
47219;SDS011;32961;51.936;4.788;2024-02-15T07:45:56;15.30;;;7.50;;
47219;SDS011;32961;51.936;4.788;2024-02-15T07:48:25;16.00;;;7.10;;
47219;SDS011;32961;51.936;4.788;2024-02-15T07:50:53;18.20;;;6.95;;
47219;SDS011;32961;51.936;4.788;2024-02-15T07:53:21;17.00;;;7.07;;
47219;SDS011;32961;51.936;4.788;2024-02-15T07:55:51;22.58;;;6.93;;
47219;SDS011;32961;51.936;4.788;2024-02-15T07:58:19;15.98;;;6.60;;
47219;SDS011;32961;51.936;4.788;2024-02-15T08:00:47;16.73;;;6.50;;
47219;SDS011;32961;51.936;4.788;2024-02-15T08:03:15;16.10;;;6.90;;
47219;SDS011;32961;51.936;4.788;2024-02-15T08:05:44;15.93;;;6.63;;
47219;SDS011;32961;51.936;4.788;2024-02-15T08:08:12;16.77;;;6.40;;
47219;SDS011;32961;51.936;4.788;2024-02-15T08:10:40;24.40;;;6.63;;
47219;SDS011;32961;51.936;4.788;2024-02-15T08:13:10;14.65;;;6.28;;
47219;SDS011;32961;51.936;4.788;2024-02-15T08:15:37;15.02;;;6.60;;
47219;SDS011;32961;51.936;4.788;2024-02-15T08:18:05;17.08;;;5.93;;
47219;SDS011;32961;51.936;4.788;2024-02-15T08:20:36;16.20;;;6.43;;
47219;SDS011;32961;51.936;4.788;2024-02-15T08:23:05;16.58;;;6.40;;
47219;SDS011;32961;51.936;4.788;2024-02-15T08:25:33;15.27;;;6.50;;
47219;SDS011;32961;51.936;4.788;2024-02-15T08:28:03;17.67;;;5.88;;
47219;SDS011;32961;51.936;4.788;2024-02-15T08:30:33;14.27;;;5.97;;
47219;SDS011;32961;51.936;4.788;2024-02-15T08:33:03;14.15;;;5.78;;
47219;SDS011;32961;51.936;4.788;2024-02-15T08:35:31;18.75;;;6.22;;
47219;SDS011;32961;51.936;4.788;2024-02-15T08:37:59;14.18;;;5.75;;
47219;SDS011;32961;51.936;4.788;2024-02-15T08:40:33;16.05;;;5.80;;
47219;SDS011;32961;51.936;4.788;2024-02-15T08:43:01;16.02;;;5.43;;
47219;SDS011;32961;51.936;4.788;2024-02-15T08:45:29;16.83;;;5.78;;
47219;SDS011;32961;51.936;4.788;2024-02-15T08:47:57;13.48;;;5.10;;
47219;SDS011;32961;51.936;4.788;2024-02-15T08:50:25;13.40;;;5.40;;
47219;SDS011;32961;51.936;4.788;2024-02-15T08:52:54;16.35;;;5.60;;
47219;SDS011;32961;51.936;4.788;2024-02-15T08:55:22;14.02;;;5.80;;
47219;SDS011;32961;51.936;4.788;2024-02-15T08:57:54;15.38;;;5.45;;
47219;SDS011;32961;51.936;4.788;2024-02-15T09:00:22;20.20;;;5.70;;
47219;SDS011;32961;51.936;4.788;2024-02-15T09:02:53;19.95;;;6.40;;
47219;SDS011;32961;51.936;4.788;2024-02-15T09:05:21;16.58;;;5.35;;
47219;SDS011;32961;51.936;4.788;2024-02-15T09:07:50;17.08;;;5.25;;
47219;SDS011;32961;51.936;4.788;2024-02-15T09:10:18;21.02;;;5.25;;
47219;SDS011;32961;51.936;4.788;2024-02-15T09:12:48;11.98;;;4.63;;
47219;SDS011;32961;51.936;4.788;2024-02-15T09:15:18;23.00;;;5.65;;
47219;SDS011;32961;51.936;4.788;2024-02-15T09:17:48;20.23;;;5.22;;
47219;SDS011;32961;51.936;4.788;2024-02-15T09:20:16;19.35;;;5.82;;
47219;SDS011;32961;51.936;4.788;2024-02-15T09:22:47;21.48;;;5.75;;
47219;SDS011;32961;51.936;4.788;2024-02-15T09:25:15;15.55;;;6.15;;
47219;SDS011;32961;51.936;4.788;2024-02-15T09:27:43;13.45;;;4.55;;
47219;SDS011;32961;51.936;4.788;2024-02-15T09:30:13;16.55;;;4.82;;
47219;SDS011;32961;51.936;4.788;2024-02-15T09:32:43;19.25;;;5.82;;
47219;SDS011;32961;51.936;4.788;2024-02-15T09:35:12;14.82;;;5.18;;
47219;SDS011;32961;51.936;4.788;2024-02-15T09:37:44;16.73;;;5.38;;
47219;SDS011;32961;51.936;4.788;2024-02-15T09:40:16;17.40;;;4.82;;
47219;SDS011;32961;51.936;4.788;2024-02-15T09:42:45;11.20;;;5.05;;
47219;SDS011;32961;51.936;4.788;2024-02-15T09:45:14;13.85;;;4.90;;
47219;SDS011;32961;51.936;4.788;2024-02-15T09:47:45;16.95;;;5.28;;
47219;SDS011;32961;51.936;4.788;2024-02-15T09:50:15;19.70;;;5.65;;
47219;SDS011;32961;51.936;4.788;2024-02-15T09:52:45;19.05;;;5.35;;
47219;SDS011;32961;51.936;4.788;2024-02-15T09:55:16;21.85;;;5.82;;
47219;SDS011;32961;51.936;4.788;2024-02-15T09:57:45;18.25;;;5.15;;
47219;SDS011;32961;51.936;4.788;2024-02-15T10:00:14;12.27;;;4.60;;
47219;SDS011;32961;51.936;4.788;2024-02-15T10:02:46;18.45;;;4.90;;
47219;SDS011;32961;51.936;4.788;2024-02-15T10:05:16;20.10;;;6.68;;
47219;SDS011;32961;51.936;4.788;2024-02-15T10:07:45;14.05;;;5.18;;
47219;SDS011;32961;51.936;4.788;2024-02-15T10:10:14;14.18;;;5.28;;
47219;SDS011;32961;51.936;4.788;2024-02-15T10:12:43;13.93;;;5.00;;
47219;SDS011;32961;51.936;4.788;2024-02-15T10:15:27;15.25;;;5.38;;
47219;SDS011;32961;51.936;4.788;2024-02-15T10:18:01;14.93;;;5.20;;
47219;SDS011;32961;51.936;4.788;2024-02-15T10:20:30;16.05;;;5.30;;
47219;SDS011;32961;51.936;4.788;2024-02-15T10:25:47;14.13;;;4.78;;
47219;SDS011;32961;51.936;4.788;2024-02-15T10:28:20;13.68;;;4.90;;
47219;SDS011;32961;51.936;4.788;2024-02-15T10:30:50;14.75;;;5.13;;
47219;SDS011;32961;51.936;4.788;2024-02-15T10:33:27;12.93;;;4.50;;
47219;SDS011;32961;51.936;4.788;2024-02-15T10:36:04;14.70;;;5.05;;
47219;SDS011;32961;51.936;4.788;2024-02-15T10:38:33;14.27;;;5.13;;
47219;SDS011;32961;51.936;4.788;2024-02-15T10:41:02;17.27;;;5.07;;
47219;SDS011;32961;51.936;4.788;2024-02-15T10:43:32;11.60;;;4.90;;
47219;SDS011;32961;51.936;4.788;2024-02-15T10:46:01;16.77;;;5.13;;
47219;SDS011;32961;51.936;4.788;2024-02-15T10:48:31;18.35;;;6.53;;
47219;SDS011;32961;51.936;4.788;2024-02-15T10:51:00;14.70;;;5.85;;
47219;SDS011;32961;51.936;4.788;2024-02-15T10:53:31;12.50;;;5.85;;
47219;SDS011;32961;51.936;4.788;2024-02-15T10:56:08;13.65;;;4.95;;
47219;SDS011;32961;51.936;4.788;2024-02-15T10:58:44;9.57;;;5.03;;
47219;SDS011;32961;51.936;4.788;2024-02-15T11:01:16;12.80;;;5.47;;
47219;SDS011;32961;51.936;4.788;2024-02-15T11:03:48;9.65;;;4.35;;
47219;SDS011;32961;51.936;4.788;2024-02-15T11:06:19;12.07;;;5.22;;
47219;SDS011;32961;51.936;4.788;2024-02-15T11:08:49;14.05;;;5.40;;
47219;SDS011;32961;51.936;4.788;2024-02-15T11:11:17;13.23;;;5.03;;
47219;SDS011;32961;51.936;4.788;2024-02-15T11:13:46;10.20;;;5.80;;
47219;SDS011;32961;51.936;4.788;2024-02-15T11:19:08;11.23;;;5.15;;
47219;SDS011;32961;51.936;4.788;2024-02-15T11:24:24;15.38;;;7.40;;
47219;SDS011;32961;51.936;4.788;2024-02-15T11:26:57;16.85;;;7.30;;
47219;SDS011;32961;51.936;4.788;2024-02-15T11:29:47;14.73;;;7.85;;
47219;SDS011;32961;51.936;4.788;2024-02-15T11:32:37;13.80;;;6.18;;
47219;SDS011;32961;51.936;4.788;2024-02-15T11:35:08;9.63;;;5.60;;
47219;SDS011;32961;51.936;4.788;2024-02-15T11:37:51;10.43;;;5.32;;
47219;SDS011;32961;51.936;4.788;2024-02-15T11:40:20;12.30;;;5.82;;
47219;SDS011;32961;51.936;4.788;2024-02-15T11:42:53;11.18;;;5.80;;
47219;SDS011;32961;51.936;4.788;2024-02-15T11:45:23;13.65;;;6.72;;
47219;SDS011;32961;51.936;4.788;2024-02-15T11:47:52;11.57;;;5.68;;
47219;SDS011;32961;51.936;4.788;2024-02-15T11:50:23;11.52;;;5.90;;
47219;SDS011;32961;51.936;4.788;2024-02-15T11:52:51;11.55;;;5.53;;
47219;SDS011;32961;51.936;4.788;2024-02-15T11:55:20;13.52;;;5.82;;
47219;SDS011;32961;51.936;4.788;2024-02-15T11:57:55;10.43;;;5.88;;
47219;SDS011;32961;51.936;4.788;2024-02-15T12:00:29;10.13;;;6.55;;
47219;SDS011;32961;51.936;4.788;2024-02-15T12:03:16;11.82;;;6.40;;
47219;SDS011;32961;51.936;4.788;2024-02-15T12:06:03;10.65;;;7.80;;
47219;SDS011;32961;51.936;4.788;2024-02-15T12:08:49;11.88;;;6.00;;
47219;SDS011;32961;51.936;4.788;2024-02-15T12:11:35;8.95;;;4.70;;
47219;SDS011;32961;51.936;4.788;2024-02-15T12:14:21;16.63;;;5.00;;
47219;SDS011;32961;51.936;4.788;2024-02-15T12:17:07;7.97;;;4.30;;
47219;SDS011;32961;51.936;4.788;2024-02-15T12:19:54;8.10;;;3.60;;
47219;SDS011;32961;51.936;4.788;2024-02-15T12:22:25;8.60;;;3.83;;
47219;SDS011;32961;51.936;4.788;2024-02-15T12:24:58;4.78;;;2.97;;
47219;SDS011;32961;51.936;4.788;2024-02-15T12:27:27;5.07;;;2.97;;
47219;SDS011;32961;51.936;4.788;2024-02-15T12:29:55;12.23;;;5.68;;
47219;SDS011;32961;51.936;4.788;2024-02-15T12:32:24;8.20;;;4.70;;
47219;SDS011;32961;51.936;4.788;2024-02-15T12:34:53;8.75;;;3.15;;
47219;SDS011;32961;51.936;4.788;2024-02-15T12:37:38;5.63;;;3.20;;
47219;SDS011;32961;51.936;4.788;2024-02-15T12:40:10;6.30;;;2.40;;
47219;SDS011;32961;51.936;4.788;2024-02-15T12:42:42;7.43;;;3.38;;
47219;SDS011;32961;51.936;4.788;2024-02-15T12:45:17;7.00;;;3.20;;
47219;SDS011;32961;51.936;4.788;2024-02-15T12:47:48;10.23;;;3.67;;
47219;SDS011;32961;51.936;4.788;2024-02-15T12:50:18;6.43;;;2.97;;
47219;SDS011;32961;51.936;4.788;2024-02-15T12:52:50;8.13;;;2.63;;
47219;SDS011;32961;51.936;4.788;2024-02-15T12:55:20;4.65;;;2.22;;
47219;SDS011;32961;51.936;4.788;2024-02-15T12:57:51;8.13;;;2.78;;
47219;SDS011;32961;51.936;4.788;2024-02-15T13:00:23;11.93;;;3.40;;
47219;SDS011;32961;51.936;4.788;2024-02-15T13:02:55;10.02;;;2.75;;
47219;SDS011;32961;51.936;4.788;2024-02-15T13:05:25;10.57;;;2.72;;
47219;SDS011;32961;51.936;4.788;2024-02-15T13:07:55;19.02;;;4.25;;
47219;SDS011;32961;51.936;4.788;2024-02-15T13:10:24;8.20;;;2.67;;
47219;SDS011;32961;51.936;4.788;2024-02-15T13:12:52;14.27;;;3.10;;
47219;SDS011;32961;51.936;4.788;2024-02-15T13:15:22;7.28;;;3.42;;
47219;SDS011;32961;51.936;4.788;2024-02-15T13:17:53;8.93;;;3.75;;
47219;SDS011;32961;51.936;4.788;2024-02-15T13:20:22;10.32;;;2.80;;
47219;SDS011;32961;51.936;4.788;2024-02-15T13:23:00;8.73;;;2.90;;
47219;SDS011;32961;51.936;4.788;2024-02-15T13:25:34;12.15;;;3.00;;
47219;SDS011;32961;51.936;4.788;2024-02-15T13:28:03;7.40;;;2.85;;
47219;SDS011;32961;51.936;4.788;2024-02-15T13:30:32;14.07;;;3.53;;
47219;SDS011;32961;51.936;4.788;2024-02-15T13:33:00;10.45;;;3.08;;
47219;SDS011;32961;51.936;4.788;2024-02-15T13:35:28;6.85;;;3.13;;
47219;SDS011;32961;51.936;4.788;2024-02-15T13:37:56;6.70;;;3.00;;
47219;SDS011;32961;51.936;4.788;2024-02-15T13:40:27;8.63;;;2.80;;
47219;SDS011;32961;51.936;4.788;2024-02-15T13:42:57;7.53;;;2.65;;
47219;SDS011;32961;51.936;4.788;2024-02-15T13:45:27;13.43;;;2.60;;
47219;SDS011;32961;51.936;4.788;2024-02-15T13:47:59;9.57;;;2.80;;
47219;SDS011;32961;51.936;4.788;2024-02-15T13:50:28;8.02;;;3.28;;
47219;SDS011;32961;51.936;4.788;2024-02-15T13:52:57;5.68;;;2.35;;
47219;SDS011;32961;51.936;4.788;2024-02-15T13:55:26;15.60;;;3.55;;
47219;SDS011;32961;51.936;4.788;2024-02-15T13:57:55;8.15;;;2.55;;
47219;SDS011;32961;51.936;4.788;2024-02-15T14:00:24;4.60;;;2.33;;
47219;SDS011;32961;51.936;4.788;2024-02-15T14:02:57;7.93;;;2.30;;
47219;SDS011;32961;51.936;4.788;2024-02-15T14:05:26;7.20;;;2.47;;
47219;SDS011;32961;51.936;4.788;2024-02-15T14:07:56;10.77;;;2.58;;
47219;SDS011;32961;51.936;4.788;2024-02-15T14:10:27;14.38;;;2.42;;
47219;SDS011;32961;51.936;4.788;2024-02-15T14:12:56;7.18;;;2.20;;
47219;SDS011;32961;51.936;4.788;2024-02-15T14:15:26;7.90;;;2.50;;
47219;SDS011;32961;51.936;4.788;2024-02-15T14:17:54;9.20;;;2.13;;
47219;SDS011;32961;51.936;4.788;2024-02-15T14:20:22;9.88;;;2.58;;
47219;SDS011;32961;51.936;4.788;2024-02-15T14:22:51;5.88;;;2.85;;
47219;SDS011;32961;51.936;4.788;2024-02-15T14:25:22;7.97;;;2.53;;
47219;SDS011;32961;51.936;4.788;2024-02-15T14:27:54;5.97;;;2.85;;
47219;SDS011;32961;51.936;4.788;2024-02-15T14:30:23;8.00;;;2.95;;
47219;SDS011;32961;51.936;4.788;2024-02-15T14:33:09;4.57;;;2.60;;
47219;SDS011;32961;51.936;4.788;2024-02-15T14:35:47;13.73;;;3.30;;
47219;SDS011;32961;51.936;4.788;2024-02-15T14:38:15;7.20;;;3.08;;
47219;SDS011;32961;51.936;4.788;2024-02-15T14:40:47;7.47;;;2.13;;
47219;SDS011;32961;51.936;4.788;2024-02-15T14:43:21;5.75;;;2.47;;
47219;SDS011;32961;51.936;4.788;2024-02-15T14:45:51;9.38;;;2.80;;
47219;SDS011;32961;51.936;4.788;2024-02-15T14:48:19;6.38;;;3.47;;
47219;SDS011;32961;51.936;4.788;2024-02-15T14:50:48;8.90;;;3.92;;
47219;SDS011;32961;51.936;4.788;2024-02-15T14:53:17;11.93;;;3.40;;
47219;SDS011;32961;51.936;4.788;2024-02-15T14:55:45;8.07;;;3.40;;
47219;SDS011;32961;51.936;4.788;2024-02-15T14:58:14;7.45;;;2.38;;
47219;SDS011;32961;51.936;4.788;2024-02-15T15:00:45;6.53;;;2.58;;
47219;SDS011;32961;51.936;4.788;2024-02-15T15:03:14;42.90;;;6.53;;
47219;SDS011;32961;51.936;4.788;2024-02-15T15:05:43;9.57;;;2.60;;
47219;SDS011;32961;51.936;4.788;2024-02-15T15:08:30;7.20;;;2.67;;